Time;durP1;ratioP1;P1;durP2;ratioP2;P2;SDS_P1;SDS_P2;PMS_P1;PMS_P2;Temp;Humidity;BMP_temperature;BMP_pressure;BME280_temperature;BME280_humidity;BME280_pressure;Samples;Min_cycle;Max_cycle;Signal;HPM_P1;HPM_P2
2022/08/21 00:00:52;;;;;;;0.00;0.00;;;12.40;99.90;;;;;;5096120;28;20036;-73
2022/08/21 00:03:18;;;;;;;0.00;0.00;;;12.30;99.90;;;;;;5096252;28;20087;-72
2022/08/21 00:05:49;;;;;;;0.00;0.00;;;12.30;99.90;;;;;;5095970;28;20040;-73
2022/08/21 00:08:15;;;;;;;0.10;0.10;;;12.30;99.90;;;;;;5095739;28;20036;-72
2022/08/21 00:10:42;;;;;;;0.00;0.00;;;12.30;99.90;;;;;;5096273;28;20391;-72
2022/08/21 00:13:08;;;;;;;0.00;0.00;;;12.20;99.90;;;;;;5096058;28;20244;-72
2022/08/21 00:15:35;;;;;;;0.08;0.05;;;12.20;99.90;;;;;;5095940;28;20044;-72
2022/08/21 00:18:03;;;;;;;0.00;0.00;;;12.10;99.90;;;;;;5096093;28;20044;-72
2022/08/21 00:20:29;;;;;;;0.10;0.10;;;12.10;99.90;;;;;;5095761;28;20599;-73
2022/08/21 00:22:55;;;;;;;0.00;0.00;;;12.10;99.90;;;;;;5095657;28;20048;-73
2022/08/21 00:25:20;;;;;;;0.43;0.15;;;12.10;99.90;;;;;;5095576;28;20044;-73
2022/08/21 00:27:46;;;;;;;0.00;0.00;;;11.90;99.90;;;;;;5095849;28;20044;-73
2022/08/21 00:30:23;;;;;;;0.00;0.00;;;11.80;99.90;;;;;;5095488;28;20047;-73
2022/08/21 00:32:49;;;;;;;0.00;0.00;;;11.80;99.90;;;;;;5096143;28;20048;-72
2022/08/21 00:35:17;;;;;;;0.00;0.00;;;11.70;99.90;;;;;;5095863;28;20044;-72
2022/08/21 00:37:43;;;;;;;0.00;0.00;;;11.70;99.90;;;;;;5095359;28;20106;-73
2022/08/21 00:40:14;;;;;;;0.10;0.10;;;11.70;99.90;;;;;;5096069;28;20543;-73
2022/08/21 00:42:41;;;;;;;0.13;0.10;;;11.70;99.90;;;;;;5095910;28;20082;-72
2022/08/21 00:45:08;;;;;;;0.00;0.00;;;11.70;99.90;;;;;;5096312;28;20448;-73
2022/08/21 00:47:34;;;;;;;0.10;0.10;;;11.70;99.90;;;;;;5095824;28;20129;-74
2022/08/21 00:50:00;;;;;;;0.00;0.00;;;11.70;99.90;;;;;;5095469;28;20040;-73
2022/08/21 00:52:29;;;;;;;0.03;0.03;;;11.70;99.90;;;;;;5095538;28;20101;-73
2022/08/21 00:54:58;;;;;;;0.10;0.10;;;11.60;99.90;;;;;;5095368;28;20051;-73
2022/08/21 00:57:28;;;;;;;0.00;0.00;;;11.60;99.90;;;;;;5094381;28;20047;-73
2022/08/21 00:59:57;;;;;;;0.00;0.00;;;11.60;99.90;;;;;;5095527;28;20055;-73
2022/08/21 01:02:22;;;;;;;0.20;0.20;;;11.60;99.90;;;;;;5095366;28;20052;-73
2022/08/21 01:04:48;;;;;;;0.82;0.65;;;11.50;99.90;;;;;;5094741;28;20044;-73
2022/08/21 01:07:15;;;;;;;0.00;0.00;;;11.50;99.90;;;;;;5093056;28;20040;-73
2022/08/21 01:09:41;;;;;;;0.10;0.05;;;11.50;99.90;;;;;;5093175;28;20032;-73
2022/08/21 01:12:08;;;;;;;0.05;0.05;;;11.50;99.90;;;;;;5092921;28;20044;-73
2022/08/21 01:14:35;;;;;;;0.00;0.00;;;11.50;99.90;;;;;;5071767;28;20090;-73
2022/08/21 01:17:02;;;;;;;0.03;0.03;;;11.50;99.90;;;;;;5072593;28;20535;-73
2022/08/21 01:19:29;;;;;;;0.00;0.00;;;11.50;99.90;;;;;;5074108;28;20052;-73
2022/08/21 01:21:55;;;;;;;0.00;0.00;;;11.50;99.90;;;;;;5076309;28;20116;-73
2022/08/21 01:24:21;;;;;;;0.00;0.00;;;11.40;99.90;;;;;;5076174;28;20094;-73
2022/08/21 01:26:48;;;;;;;0.28;0.22;;;11.40;99.90;;;;;;5077144;28;20045;-73
2022/08/21 01:29:36;;;;;;;3.65;0.85;;;11.40;99.90;;;;;;5077503;28;20068;-73
2022/08/21 01:32:12;;;;;;;0.65;0.30;;;11.40;99.90;;;;;;5076824;28;20044;-73
2022/08/21 01:34:41;;;;;;;0.10;0.10;;;11.30;99.90;;;;;;5077402;28;20045;-73
2022/08/21 01:37:07;;;;;;;0.00;0.00;;;11.30;99.90;;;;;;5076973;28;20392;-73
2022/08/21 01:39:34;;;;;;;0.10;0.10;;;11.40;99.90;;;;;;5078899;28;20094;-73
2022/08/21 01:41:59;;;;;;;2.28;1.10;;;11.40;99.90;;;;;;5076671;28;20041;-73
2022/08/21 01:44:26;;;;;;;0.65;0.55;;;11.40;99.90;;;;;;5076569;28;20116;-73
2022/08/21 01:46:52;;;;;;;0.10;0.10;;;11.30;99.90;;;;;;5076623;28;20058;-73
2022/08/21 01:49:19;;;;;;;0.52;0.45;;;11.30;99.90;;;;;;5076361;28;20037;-73
2022/08/21 01:51:44;;;;;;;0.20;0.17;;;11.30;99.90;;;;;;5076818;28;20041;-73
2022/08/21 01:54:10;;;;;;;0.00;0.00;;;11.20;99.90;;;;;;5076415;28;20055;-72
2022/08/21 01:56:39;;;;;;;0.17;0.03;;;11.30;99.90;;;;;;5073044;28;20051;-73
2022/08/21 01:59:04;;;;;;;0.10;0.10;;;11.30;99.90;;;;;;5076069;28;20460;-73
2022/08/21 02:01:30;;;;;;;0.45;0.45;;;11.20;99.90;;;;;;5076417;28;20115;-72
2022/08/21 02:03:55;;;;;;;0.10;0.10;;;11.20;99.90;;;;;;5076615;28;20119;-73
2022/08/21 02:06:21;;;;;;;0.47;0.32;;;11.20;99.90;;;;;;5076326;28;20044;-73
2022/08/21 02:08:47;;;;;;;0.03;0.03;;;11.20;99.90;;;;;;5076452;28;20040;-73
2022/08/21 02:11:13;;;;;;;0.03;0.03;;;11.20;99.90;;;;;;5076475;28;20037;-72
2022/08/21 02:13:39;;;;;;;0.03;0.03;;;11.20;99.90;;;;;;5075996;28;20051;-71
2022/08/21 02:16:05;;;;;;;0.00;0.00;;;11.10;99.90;;;;;;5074927;28;20045;-72
2022/08/21 02:18:30;;;;;;;0.20;0.20;;;11.10;99.90;;;;;;5075691;28;20049;-73
2022/08/21 02:20:56;;;;;;;0.05;0.05;;;11.10;99.90;;;;;;5075720;28;20040;-72
2022/08/21 02:23:23;;;;;;;0.00;0.00;;;11.10;99.90;;;;;;5075492;28;20528;-73
2022/08/21 02:25:48;;;;;;;0.00;0.00;;;11.10;99.90;;;;;;5075475;28;20040;-73
2022/08/21 02:28:15;;;;;;;1.35;0.25;;;11.10;99.90;;;;;;5075361;28;20048;-73
2022/08/21 02:30:45;;;;;;;0.03;0.03;;;11.10;99.90;;;;;;5074869;28;20445;-73
2022/08/21 02:33:11;;;;;;;0.20;0.20;;;11.10;99.90;;;;;;5074410;28;20041;-73
2022/08/21 02:35:39;;;;;;;0.75;0.55;;;11.10;99.90;;;;;;5073887;28;20055;-73
2022/08/21 02:38:07;;;;;;;0.20;0.20;;;11.20;99.90;;;;;;5075395;28;20033;-74
2022/08/21 02:40:35;;;;;;;0.00;0.00;;;11.20;99.90;;;;;;5075053;28;20062;-74
2022/08/21 02:43:02;;;;;;;0.10;0.10;;;11.20;99.90;;;;;;5074211;28;20387;-73
2022/08/21 02:45:28;;;;;;;0.00;0.00;;;11.20;99.90;;;;;;5056934;28;20127;-72
2022/08/21 02:48:16;;;;;;;0.73;0.43;;;11.30;99.90;;;;;;5074971;28;20048;-73
2022/08/21 02:50:45;;;;;;;0.05;0.05;;;11.30;99.90;;;;;;5074940;28;20041;-73
2022/08/21 02:53:16;;;;;;;0.73;0.30;;;11.30;99.90;;;;;;5073486;28;20036;-73
2022/08/21 02:55:43;;;;;;;2.03;0.50;;;11.30;99.90;;;;;;5073660;28;20123;-73
2022/08/21 02:58:08;;;;;;;0.00;0.00;;;11.40;99.90;;;;;;5074738;28;20115;-73
2022/08/21 03:00:36;;;;;;;0.38;0.38;;;11.40;99.90;;;;;;5074743;28;20598;-73
2022/08/21 03:03:04;;;;;;;0.45;0.45;;;11.30;99.90;;;;;;5073782;28;20109;-73
2022/08/21 03:05:31;;;;;;;0.57;0.52;;;11.40;99.90;;;;;;5074608;28;20072;-74
2022/08/21 03:07:58;;;;;;;0.30;0.30;;;11.40;99.90;;;;;;5075105;28;20059;-73
2022/08/21 03:10:24;;;;;;;0.17;0.17;;;11.60;99.90;;;;;;5074803;28;20398;-73
2022/08/21 03:12:51;;;;;;;0.17;0.17;;;11.50;99.90;;;;;;5073517;28;20054;-73
2022/08/21 03:15:20;;;;;;;4.53;1.02;;;11.70;99.90;;;;;;5074607;28;20508;-73
2022/08/21 03:17:47;;;;;;;0.22;0.22;;;11.60;99.90;;;;;;5074327;28;20131;-73
2022/08/21 03:20:15;;;;;;;0.38;0.17;;;11.60;99.90;;;;;;5056516;28;20080;-73
2022/08/21 03:22:41;;;;;;;0.43;0.43;;;11.60;99.90;;;;;;5074466;28;20119;-72
2022/08/21 03:25:07;;;;;;;0.43;0.43;;;11.60;99.90;;;;;;5074200;28;20044;-73
2022/08/21 03:27:33;;;;;;;0.10;0.10;;;11.60;99.90;;;;;;5074212;28;20040;-73
2022/08/21 03:30:00;;;;;;;0.20;0.20;;;11.60;99.90;;;;;;5073019;28;20072;-73
2022/08/21 03:32:25;;;;;;;0.43;0.35;;;11.50;99.90;;;;;;5073917;28;20048;-73
2022/08/21 03:34:51;;;;;;;0.43;0.43;;;11.50;99.90;;;;;;5073894;28;20048;-73
2022/08/21 03:37:17;;;;;;;0.10;0.10;;;11.50;99.90;;;;;;5073601;28;20091;-73
2022/08/21 03:39:44;;;;;;;0.50;0.45;;;11.50;99.90;;;;;;5074192;28;20101;-73
2022/08/21 03:42:10;;;;;;;0.60;0.32;;;11.50;99.90;;;;;;5073362;28;20495;-74
2022/08/21 03:44:37;;;;;;;0.85;0.73;;;11.50;99.90;;;;;;5073919;28;20040;-73
2022/08/21 03:47:03;;;;;;;0.35;0.30;;;11.50;99.90;;;;;;5073883;28;20142;-73
2022/08/21 03:49:29;;;;;;;0.20;0.20;;;11.50;99.90;;;;;;5073889;28;20049;-74
2022/08/21 03:51:55;;;;;;;0.20;0.20;;;11.40;99.90;;;;;;5073933;28;20466;-73
2022/08/21 03:54:21;;;;;;;0.47;0.38;;;11.40;99.90;;;;;;5073822;28;20051;-73
2022/08/21 03:56:47;;;;;;;0.30;0.30;;;11.50;99.90;;;;;;5073819;28;20044;-73
2022/08/21 03:59:13;;;;;;;0.52;0.45;;;11.60;99.90;;;;;;5073673;28;20086;-73
2022/08/21 04:01:39;;;;;;;0.03;0.03;;;11.40;99.90;;;;;;5073612;28;20051;-73
2022/08/21 04:04:05;;;;;;;0.05;0.05;;;11.30;99.90;;;;;;5072385;28;20041;-73
2022/08/21 04:06:33;;;;;;;0.63;0.63;;;11.30;99.90;;;;;;5073959;28;20040;-73
2022/08/21 04:08:58;;;;;;;0.90;0.80;;;11.30;99.90;;;;;;5073718;28;20102;-73
2022/08/21 04:11:24;;;;;;;0.00;0.00;;;11.90;99.90;;;;;;5073586;28;20044;-73
2022/08/21 04:13:50;;;;;;;0.75;0.22;;;11.40;99.90;;;;;;5073655;28;20510;-72
2022/08/21 04:16:15;;;;;;;0.73;0.43;;;11.40;99.90;;;;;;5073571;28;20072;-74
2022/08/21 04:18:42;;;;;;;0.45;0.43;;;11.40;99.90;;;;;;5073473;28;20036;-73
2022/08/21 04:21:10;;;;;;;0.73;0.47;;;11.40;99.90;;;;;;5073802;28;20046;-73
2022/08/21 04:23:36;;;;;;;2.05;0.98;;;11.40;99.90;;;;;;5073509;28;20122;-73
2022/08/21 04:26:01;;;;;;;0.20;0.20;;;11.40;99.90;;;;;;5073534;28;20486;-73
2022/08/21 04:28:27;;;;;;;0.00;0.00;;;11.40;99.90;;;;;;5073383;28;20072;-73
2022/08/21 04:30:53;;;;;;;0.28;0.28;;;11.30;99.90;;;;;;5073377;28;20040;-73
2022/08/21 04:33:20;;;;;;;2.85;0.40;;;11.40;99.90;;;;;;5073619;28;20037;-72
2022/08/21 04:35:46;;;;;;;0.10;0.10;;;11.30;99.90;;;;;;5073526;28;20056;-73
2022/08/21 04:38:11;;;;;;;1.00;0.73;;;11.40;99.90;;;;;;5073387;28;20051;-73
2022/08/21 04:40:37;;;;;;;0.65;0.55;;;11.40;99.90;;;;;;5073359;28;20098;-73
2022/08/21 04:43:09;;;;;;;0.57;0.57;;;11.40;99.90;;;;;;5074098;28;20037;-73
2022/08/21 04:45:40;;;;;;;0.30;0.30;;;11.40;99.90;;;;;;5073126;28;20097;-73
2022/08/21 04:48:09;;;;;;;0.30;0.30;;;11.50;99.90;;;;;;5073210;28;20071;-73
2022/08/21 04:50:42;;;;;;;0.38;0.17;;;11.50;99.90;;;;;;5073434;28;20094;-73
2022/08/21 04:53:33;;;;;;;0.63;0.63;;;11.50;99.90;;;;;;5074593;28;20036;-73
2022/08/21 04:56:08;;;;;;;13.27;0.80;;;11.50;99.90;;;;;;5077239;28;20054;-73
2022/08/21 04:58:35;;;;;;;9.25;0.50;;;11.50;99.90;;;;;;5077369;28;20064;-73
2022/08/21 05:01:03;;;;;;;1.25;1.10;;;11.60;99.90;;;;;;5077199;28;20041;-73
2022/08/21 05:03:30;;;;;;;0.95;0.52;;;11.50;99.90;;;;;;5077056;28;20384;-71
2022/08/21 05:05:57;;;;;;;0.50;0.10;;;11.60;99.90;;;;;;5077054;28;20051;-73
2022/08/21 05:08:25;;;;;;;0.25;0.25;;;11.70;99.90;;;;;;5076935;28;20083;-73
2022/08/21 05:10:51;;;;;;;1.30;0.85;;;11.70;99.90;;;;;;5076944;28;20123;-73
2022/08/21 05:13:17;;;;;;;0.40;0.32;;;11.70;99.90;;;;;;5077564;28;20094;-73
2022/08/21 05:15:43;;;;;;;0.30;0.30;;;11.80;99.90;;;;;;5077078;28;20072;-74
2022/08/21 05:18:09;;;;;;;0.10;0.10;;;11.80;99.90;;;;;;5076853;28;20091;-73
2022/08/21 05:20:34;;;;;;;9.48;1.02;;;11.90;99.90;;;;;;5076318;28;20040;-73
2022/08/21 05:23:01;;;;;;;0.75;0.75;;;12.00;99.90;;;;;;5076369;28;20040;-73
2022/08/21 05:25:27;;;;;;;0.08;0.08;;;12.10;99.90;;;;;;5076664;28;20170;-73
2022/08/21 05:27:53;;;;;;;0.05;0.05;;;12.10;99.90;;;;;;5074967;28;20052;-73
2022/08/21 05:30:19;;;;;;;0.63;0.63;;;12.30;99.90;;;;;;5076135;28;20323;-74
2022/08/21 05:32:45;;;;;;;1.63;0.85;;;12.30;99.90;;;;;;5076364;28;20049;-73
2022/08/21 05:35:11;;;;;;;0.63;0.47;;;12.30;99.90;;;;;;5075965;28;20398;-74
2022/08/21 05:37:37;;;;;;;0.30;0.17;;;12.50;99.90;;;;;;5075456;28;20079;-73
2022/08/21 05:40:04;;;;;;;0.22;0.20;;;12.50;99.90;;;;;;5076154;28;20052;-73
2022/08/21 05:42:30;;;;;;;1.02;0.52;;;12.60;99.90;;;;;;5076388;28;20036;-74
2022/08/21 05:44:55;;;;;;;1.38;0.85;;;12.70;99.90;;;;;;5076051;28;20051;-73
2022/08/21 05:47:21;;;;;;;0.45;0.40;;;12.80;99.90;;;;;;5075878;28;20559;-73
2022/08/21 05:49:47;;;;;;;2.00;1.02;;;12.80;99.90;;;;;;5075646;28;20044;-71
2022/08/21 05:52:18;;;;;;;0.47;0.40;;;13.00;99.90;;;;;;5075839;28;20505;-71
2022/08/21 05:54:43;;;;;;;1.92;0.40;;;13.10;99.90;;;;;;5075702;28;20036;-74
2022/08/21 05:57:09;;;;;;;0.15;0.15;;;13.30;99.90;;;;;;5075576;28;20399;-73
2022/08/21 05:59:34;;;;;;;0.17;0.17;;;13.40;99.90;;;;;;5075512;28;20508;-73
2022/08/21 06:02:02;;;;;;;0.98;0.20;;;13.40;99.90;;;;;;5075588;28;20414;-74
2022/08/21 06:04:27;;;;;;;3.47;1.08;;;13.60;99.90;;;;;;5074652;28;20040;-74
2022/08/21 06:06:53;;;;;;;0.80;0.45;;;13.70;99.90;;;;;;5075229;28;20044;-74
2022/08/21 06:09:18;;;;;;;0.75;0.55;;;13.80;99.90;;;;;;5075395;28;20041;-74
2022/08/21 06:11:44;;;;;;;0.57;0.50;;;13.90;99.90;;;;;;5075309;28;20118;-74
2022/08/21 06:14:13;;;;;;;1.67;1.17;;;14.10;99.90;;;;;;5075395;28;20044;-74
2022/08/21 06:16:38;;;;;;;0.77;0.77;;;14.30;99.90;;;;;;5074995;28;20036;-74
2022/08/21 06:19:04;;;;;;;0.17;0.17;;;15.00;99.90;;;;;;5074337;28;20046;-75
2022/08/21 06:21:30;;;;;;;1.88;1.13;;;15.90;99.90;;;;;;5074488;28;20048;-74
2022/08/21 06:23:55;;;;;;;1.80;1.00;;;16.70;99.90;;;;;;5075277;28;20043;-74
2022/08/21 06:26:22;;;;;;;0.85;0.40;;;17.40;99.90;;;;;;5075246;28;20119;-74
2022/08/21 06:28:47;;;;;;;0.13;0.13;;;18.10;99.90;;;;;;5075106;28;20044;-75
2022/08/21 06:31:16;;;;;;;0.13;0.13;;;18.60;99.90;;;;;;5074933;28;20047;-74
2022/08/21 06:33:42;;;;;;;0.47;0.47;;;19.10;99.90;;;;;;5074711;28;20072;-75
2022/08/21 06:36:09;;;;;;;0.10;0.10;;;19.50;99.90;;;;;;5074872;28;20529;-75
2022/08/21 06:38:35;;;;;;;0.00;0.00;;;20.10;99.90;;;;;;5074812;28;20663;-75
2022/08/21 06:41:00;;;;;;;0.47;0.40;;;20.40;99.90;;;;;;5075115;28;20082;-74
2022/08/21 06:43:26;;;;;;;0.17;0.17;;;20.70;99.90;;;;;;5074727;28;20056;-74
2022/08/21 06:45:52;;;;;;;0.75;0.40;;;21.10;99.90;;;;;;5074577;28;20076;-74
2022/08/21 06:48:17;;;;;;;1.23;1.05;;;21.40;99.90;;;;;;5074590;28;20072;-74
2022/08/21 06:50:43;;;;;;;0.25;0.25;;;21.70;99.90;;;;;;5074563;28;20044;-74
2022/08/21 06:53:15;;;;;;;0.63;0.63;;;21.80;99.90;;;;;;5075398;28;20036;-75
2022/08/21 06:55:42;;;;;;;2.05;0.55;;;21.70;99.90;;;;;;5073916;28;20376;-75
2022/08/21 06:58:08;;;;;;;0.20;0.17;;;22.10;99.90;;;;;;5074804;28;20044;-75
2022/08/21 07:00:35;;;;;;;1.23;0.70;;;22.20;99.90;;;;;;5073540;28;20040;-75
2022/08/21 07:03:01;;;;;;;0.05;0.05;;;22.40;99.90;;;;;;5074849;28;20056;-75
2022/08/21 07:05:29;;;;;;;0.25;0.20;;;22.50;99.90;;;;;;5075186;28;20402;-75
2022/08/21 07:07:55;;;;;;;0.10;0.10;;;22.60;99.90;;;;;;5074923;28;20048;-75
2022/08/21 07:10:20;;;;;;;0.90;0.73;;;23.00;99.90;;;;;;5074954;28;20049;-74
2022/08/21 07:12:46;;;;;;;0.55;0.40;;;23.30;99.90;;;;;;5074542;28;20041;-74
2022/08/21 07:15:12;;;;;;;0.30;0.28;;;23.50;99.90;;;;;;5074909;28;20511;-75
2022/08/21 07:17:37;;;;;;;1.08;0.65;;;23.60;99.90;;;;;;5073356;28;20037;-75
2022/08/21 07:20:04;;;;;;;1.10;0.60;;;23.60;99.90;;;;;;5073678;28;20454;-74
2022/08/21 07:22:30;;;;;;;0.40;0.28;;;23.60;99.90;;;;;;5074722;28;20162;-75
2022/08/21 07:24:56;;;;;;;0.47;0.43;;;23.80;99.90;;;;;;5074608;28;20074;-75
2022/08/21 07:27:21;;;;;;;1.25;0.40;;;23.80;99.90;;;;;;5075091;28;20045;-74
2022/08/21 07:29:47;;;;;;;2.35;0.55;;;23.90;99.90;;;;;;5074324;28;20032;-74
2022/08/21 07:32:14;;;;;;;1.05;0.15;;;24.40;99.90;;;;;;5075522;28;20041;-75
2022/08/21 07:34:41;;;;;;;8.77;0.63;;;24.30;95.20;;;;;;5074346;28;20051;-75
2022/08/21 07:37:06;;;;;;;0.30;0.20;;;24.50;96.50;;;;;;5087229;28;20130;-74
2022/08/21 07:39:32;;;;;;;0.00;0.00;;;24.70;98.70;;;;;;5096658;28;20068;-75
2022/08/21 07:41:57;;;;;;;0.32;0.28;;;24.80;91.60;;;;;;5096257;28;20032;-72
2022/08/21 07:44:23;;;;;;;0.00;0.00;;;24.40;90.50;;;;;;5095200;28;20097;-72
2022/08/21 07:46:49;;;;;;;0.88;0.73;;;24.40;91.60;;;;;;5096111;28;20072;-73
2022/08/21 07:49:14;;;;;;;0.20;0.20;;;24.60;80.80;;;;;;5097343;28;20547;-72
2022/08/21 07:51:40;;;;;;;0.45;0.35;;;24.70;74.60;;;;;;5085569;28;20044;-73
2022/08/21 07:54:06;;;;;;;0.75;0.43;;;24.60;77.20;;;;;;5076186;28;20090;-72
2022/08/21 07:56:32;;;;;;;1.58;1.45;;;24.70;76.60;;;;;;5076290;28;20517;-72
2022/08/21 07:58:57;;;;;;;0.15;0.10;;;24.60;74.90;;;;;;5075909;28;20111;-72
2022/08/21 08:01:23;;;;;;;1.45;0.90;;;24.90;76.60;;;;;;5072954;28;20487;-72
2022/08/21 08:03:49;;;;;;;5.22;1.40;;;25.20;68.60;;;;;;5073536;28;20051;-73
2022/08/21 08:06:18;;;;;;;0.80;0.63;;;25.20;60.30;;;;;;5073887;28;20037;-73
2022/08/21 08:08:45;;;;;;;0.73;0.52;;;25.20;57.50;;;;;;5072813;28;20044;-73
2022/08/21 08:11:14;;;;;;;0.88;0.55;;;25.20;53.50;;;;;;5073822;28;20047;-73
2022/08/21 08:13:46;;;;;;;0.10;0.10;;;25.10;55.90;;;;;;5072093;28;20047;-73
2022/08/21 08:16:12;;;;;;;0.10;0.10;;;25.30;56.30;;;;;;5072485;28;20052;-73
2022/08/21 08:18:38;;;;;;;0.85;0.28;;;25.10;52.10;;;;;;5074857;28;20044;-73
2022/08/21 08:21:04;;;;;;;3.20;0.55;;;25.50;47.80;;;;;;5072726;28;20044;-73
2022/08/21 08:23:31;;;;;;;0.90;0.60;;;25.40;51.60;;;;;;5074795;28;20056;-73
2022/08/21 08:25:58;;;;;;;0.55;0.40;;;25.40;42.70;;;;;;5074526;28;20051;-74
2022/08/21 08:28:24;;;;;;;0.50;0.50;;;25.40;48.20;;;;;;5079271;28;20052;-73
2022/08/21 08:30:50;;;;;;;1.40;0.88;;;25.20;44.40;;;;;;5094572;28;20051;-73
2022/08/21 08:33:16;;;;;;;0.20;0.20;;;25.30;43.30;;;;;;5094537;28;20506;-74
2022/08/21 08:35:46;;;;;;;3.70;0.80;;;25.60;43.00;;;;;;5093490;28;20043;-74
2022/08/21 08:38:16;;;;;;;1.25;0.88;;;25.60;37.90;;;;;;5093442;28;20134;-73
2022/08/21 08:40:59;;;;;;;1.02;0.95;;;25.70;34.60;;;;;;5093000;28;20048;-74
2022/08/21 08:43:28;;;;;;;0.52;0.35;;;26.00;36.60;;;;;;5094776;28;20054;-73
2022/08/21 08:45:56;;;;;;;0.10;0.10;;;26.30;28.90;;;;;;5093345;28;20095;-73
2022/08/21 08:48:56;;;;;;;0.35;0.22;;;26.30;31.30;;;;;;5092556;28;20127;-74
2022/08/21 08:51:45;;;;;;;0.13;0.10;;;26.70;30.80;;;;;;5093425;28;20040;-74
2022/08/21 08:54:25;;;;;;;0.10;0.10;;;27.10;24.40;;;;;;5092434;28;20410;-74
2022/08/21 08:56:52;;;;;;;3.13;0.63;;;27.10;20.90;;;;;;5094206;28;20119;-73
2022/08/21 08:59:38;;;;;;;1.25;0.50;;;27.10;20.20;;;;;;5092666;28;20051;-73
2022/08/21 09:02:05;;;;;;;0.20;0.20;;;27.20;20.90;;;;;;5093885;28;20106;-74
2022/08/21 09:04:31;;;;;;;0.00;0.00;;;27.20;18.60;;;;;;5093527;28;20054;-74
2022/08/21 09:07:24;;;;;;;1.42;0.43;;;27.40;15.80;;;;;;5092440;28;20082;-73
2022/08/21 09:10:02;;;;;;;0.20;0.17;;;27.60;13.40;;;;;;5093702;28;20048;-74
2022/08/21 09:12:42;;;;;;;0.45;0.17;;;27.50;14.30;;;;;;5093064;28;20117;-73
2022/08/21 09:15:23;;;;;;;2.38;0.77;;;27.60;13.50;;;;;;5093781;28;20101;-73
2022/08/21 09:17:54;;;;;;;0.30;0.22;;;27.50;10.00;;;;;;5093154;28;20052;-74
2022/08/21 09:20:35;;;;;;;0.00;0.00;;;27.70;11.00;;;;;;5092240;28;20044;-73
2022/08/21 09:23:19;;;;;;;1.48;0.40;;;28.10;8.60;;;;;;5090615;28;20047;-74
2022/08/21 09:26:06;;;;;;;1.42;0.63;;;28.40;11.70;;;;;;5091008;28;20048;-74
2022/08/21 09:28:36;;;;;;;2.65;1.83;;;28.40;7.10;;;;;;5089039;28;20048;-74
2022/08/21 09:31:14;;;;;;;8.63;1.25;;;28.40;9.00;;;;;;5090705;28;20505;-75
2022/08/21 09:33:39;;;;;;;1.88;1.42;;;28.50;8.30;;;;;;5093498;28;20088;-74
2022/08/21 09:36:05;;;;;;;2.38;1.27;;;27.90;7.60;;;;;;5094590;28;20087;-75
2022/08/21 09:38:34;;;;;;;2.05;1.27;;;27.90;9.90;;;;;;5096436;28;20044;-75
2022/08/21 09:41:08;;;;;;;3.20;1.55;;;27.80;10.20;;;;;;5099211;28;20090;-75
2022/08/21 09:43:34;;;;;;;2.10;1.33;;;27.80;14.80;;;;;;5099844;28;20100;-72
2022/08/21 09:46:21;;;;;;;0.95;0.55;;;27.50;13.90;;;;;;5103025;28;20048;-75
2022/08/21 09:48:53;;;;;;;2.05;1.20;;;27.50;16.80;;;;;;5101817;28;20095;-74
2022/08/21 09:51:31;;;;;;;0.90;0.57;;;27.30;19.00;;;;;;5101451;28;20040;-73
2022/08/21 09:54:06;;;;;;;1.05;0.47;;;27.30;18.20;;;;;;5095234;28;20531;-75
2022/08/21 09:59:32;;;;;;;0.40;0.40;;;27.00;19.10;;;;;;5095021;28;20413;-74
2022/08/21 10:02:01;;;;;;;0.93;0.43;;;27.00;25.40;;;;;;5088990;28;20055;-74
2022/08/21 10:04:31;;;;;;;1.25;0.75;;;27.10;23.70;;;;;;5084118;28;20044;-73
2022/08/21 10:07:12;;;;;;;1.45;0.93;;;27.20;21.70;;;;;;5079041;28;20044;-75
2022/08/21 10:09:38;;;;;;;0.50;0.40;;;27.20;22.20;;;;;;5073973;28;20391;-74
2022/08/21 10:12:03;;;;;;;3.00;0.73;;;27.20;20.40;;;;;;5074596;28;20040;-74
2022/08/21 10:14:50;;;;;;;0.98;0.32;;;27.10;27.40;;;;;;5078700;28;20049;-74
2022/08/21 10:17:36;;;;;;;1.90;0.63;;;27.10;28.50;;;;;;5080877;28;20040;-74
2022/08/21 10:20:07;;;;;;;;;;;27.20;29.40;;;;;;5076978;28;20489;-74
2022/08/21 10:22:48;;;;;;;0.10;0.10;;;27.00;23.30;;;;;;5074833;28;19925;-75
2022/08/21 10:25:50;;;;;;;0.08;0.08;;;26.60;27.30;;;;;;5074716;28;20072;-74
2022/08/21 10:28:43;;;;;;;1.45;0.50;;;26.10;37.70;;;;;;5074004;28;20052;-75
2022/08/21 10:32:02;;;;;;;0.10;0.10;;;25.70;45.00;;;;;;5074069;28;20052;-74
2022/08/21 10:34:31;;;;;;;3.38;0.45;;;25.30;49.20;;;;;;4977264;28;20050;-74
2022/08/21 10:37:12;;;;;;;0.95;0.40;;;25.30;60.30;;;;;;4993772;28;20441;-74
2022/08/21 10:39:56;;;;;;;0.55;0.43;;;25.30;48.40;;;;;;5044157;28;20048;-74
2022/08/21 10:42:41;;;;;;;0.00;0.00;;;24.90;56.30;;;;;;5078103;28;20394;-74
2022/08/21 10:45:28;;;;;;;0.38;0.38;;;24.60;69.40;;;;;;5075874;28;20051;-74
2022/08/21 10:47:58;;;;;;;0.88;0.40;;;24.90;74.00;;;;;;5075712;28;20071;-74
2022/08/21 10:50:56;;;;;;;13.40;0.55;;;25.20;63.20;;;;;;5073694;28;20070;-74
2022/08/21 10:53:55;;;;;;;2.83;0.55;;;26.00;45.40;;;;;;5076155;28;20048;-74
2022/08/21 10:56:28;;;;;;;0.00;0.00;;;26.80;25.00;;;;;;5076793;28;20048;-75
2022/08/21 10:59:18;;;;;;;0.10;0.10;;;27.50;22.80;;;;;;5075429;28;20052;-75
2022/08/21 11:02:03;;;;;;;4.38;0.20;;;27.90;18.50;;;;;;5078569;28;20044;-74
2022/08/21 11:04:57;;;;;;;1.90;1.05;;;27.80;15.90;;;;;;5077117;28;20040;-74
2022/08/21 11:07:46;;;;;;;0.10;0.10;;;27.80;7.30;;;;;;5005879;28;20105;-72
2022/08/21 11:10:14;;;;;;;0.40;0.38;;;28.30;7.30;;;;;;5082619;28;20044;-74
2022/08/21 11:12:45;;;;;;;0.10;0.10;;;29.00;10.50;;;;;;5082491;28;20388;-74
2022/08/21 11:15:27;;;;;;;0.35;0.20;;;29.40;5.90;;;;;;5083189;28;20045;-74
2022/08/21 11:18:30;;;;;;;0.00;0.00;;;29.70;4.30;;;;;;5078484;28;20051;-75
2022/08/21 11:21:12;;;;;;;0.30;0.30;;;29.30;2.60;;;;;;5074896;28;20051;-74
2022/08/21 11:23:44;;;;;;;0.00;0.00;;;29.10;1.80;;;;;;5079757;28;20048;-73
2022/08/21 11:26:39;;;;;;;0.00;0.00;;;28.80;1.30;;;;;;5076236;28;20055;-73
2022/08/21 11:29:16;;;;;;;0.00;0.00;;;28.40;1.60;;;;;;5074709;28;20068;-73
2022/08/21 11:32:05;;;;;;;0.00;0.00;;;28.10;3.30;;;;;;5075395;28;20040;-72
2022/08/21 11:35:01;;;;;;;1.48;0.43;;;27.90;3.70;;;;;;5075070;28;20084;-73
2022/08/21 11:37:44;;;;;;;0.90;0.32;;;27.60;8.30;;;;;;5075435;28;20059;-74
2022/08/21 11:40:28;;;;;;;0.45;0.40;;;27.20;7.20;;;;;;5076262;28;20077;-73
2022/08/21 11:43:16;;;;;;;0.08;0.08;;;26.70;11.90;;;;;;5075466;28;20120;-74
2022/08/21 11:45:47;;;;;;;0.75;0.50;;;26.20;17.20;;;;;;5073769;28;20725;-74
2022/08/21 11:48:37;;;;;;;0.20;0.20;;;25.60;18.50;;;;;;5072120;28;20107;-74
2022/08/21 11:51:12;;;;;;;0.57;0.57;;;25.30;22.60;;;;;;5073966;28;20040;-74
2022/08/21 11:54:12;;;;;;;0.10;0.08;;;24.90;32.50;;;;;;5071590;28;20055;-74
2022/08/21 11:56:45;;;;;;;2.45;1.20;;;24.80;40.00;;;;;;5072810;28;20049;-73
2022/08/21 11:59:39;;;;;;;2.08;1.08;;;25.00;42.90;;;;;;5073470;28;20052;-74
2022/08/21 12:02:14;;;;;;;0.65;0.45;;;25.50;39.90;;;;;;5072303;28;20048;-74
2022/08/21 12:04:47;;;;;;;0.47;0.32;;;25.50;43.20;;;;;;5073275;28;20044;-73
2022/08/21 12:07:28;;;;;;;0.05;0.05;;;25.50;40.90;;;;;;5073486;28;20040;-74
2022/08/21 12:09:56;;;;;;;0.10;0.10;;;25.70;38.30;;;;;;5073108;28;20040;-74
2022/08/21 12:12:26;;;;;;;0.25;0.20;;;25.80;38.20;;;;;;5073813;28;20048;-74
2022/08/21 12:15:14;;;;;;;0.38;0.38;;;25.60;46.10;;;;;;5073352;28;20444;-73
2022/08/21 12:17:51;;;;;;;0.80;0.57;;;26.00;40.70;;;;;;5073250;28;20086;-74
2022/08/21 12:20:56;;;;;;;0.20;0.20;;;26.90;39.50;;;;;;5073338;28;20403;-74
2022/08/21 12:23:31;;;;;;;20.63;0.60;;;27.30;36.50;;;;;;5062305;28;20418;-73
2022/08/21 12:26:01;;;;;;;2.50;0.75;;;27.70;29.00;;;;;;5073217;28;20048;-74
2022/08/21 12:28:29;;;;;;;0.13;0.08;;;28.00;21.60;;;;;;5073440;28;20079;-73
2022/08/21 12:30:55;;;;;;;0.10;0.08;;;27.70;15.60;;;;;;5071838;28;20040;-74
2022/08/21 12:33:39;;;;;;;0.00;0.00;;;28.00;24.40;;;;;;5073244;28;20040;-74
2022/08/21 12:36:15;;;;;;;1.10;0.50;;;28.30;15.40;;;;;;5072900;28;20054;-74
2022/08/21 12:38:56;;;;;;;0.75;0.47;;;27.70;15.90;;;;;;5072955;28;20045;-73
2022/08/21 12:41:33;;;;;;;0.08;0.08;;;27.10;12.50;;;;;;5073363;28;20083;-74
2022/08/21 12:44:09;;;;;;;0.77;0.30;;;26.80;16.70;;;;;;5073446;28;20124;-74
2022/08/21 12:46:47;;;;;;;0.30;0.22;;;26.70;21.60;;;;;;5073182;28;20096;-73
2022/08/21 12:49:33;;;;;;;0.47;0.43;;;26.40;20.00;;;;;;5073144;28;20094;-74
2022/08/21 12:52:33;;;;;;;0.00;0.00;;;26.40;19.80;;;;;;5072948;28;20399;-74
2022/08/21 12:54:59;;;;;;;0.28;0.20;;;26.60;28.10;;;;;;5072950;28;20044;-74
2022/08/21 12:57:28;;;;;;;0.43;0.43;;;28.30;20.60;;;;;;5072808;28;20052;-75
2022/08/21 12:59:59;;;;;;;0.03;0.03;;;28.70;12.40;;;;;;5072758;28;20522;-74
2022/08/21 13:02:47;;;;;;;1.35;0.57;;;27.60;8.60;;;;;;5072950;28;20119;-75
2022/08/21 13:05:23;;;;;;;0.77;0.52;;;26.90;16.90;;;;;;5072904;28;20123;-74
2022/08/21 13:07:49;;;;;;;;;;;26.80;18.10;;;;;;5072321;28;20032;-74
2022/08/21 13:10:23;;;;;;;;;;;26.80;19.10;;;;;;5073408;28;20070;-75